createdAt,value
2022-07-29T00:00:16.151Z,98195.69
2022-07-29T00:01:19.192Z,98197.50
2022-07-29T00:02:21.387Z,98195.13
2022-07-29T00:03:23.043Z,98190.81
2022-07-29T00:04:24.632Z,98186.31
2022-07-29T00:05:26.555Z,98192.88
2022-07-29T00:06:28.039Z,98193.63
2022-07-29T00:07:29.531Z,98186.75
2022-07-29T00:08:30.972Z,98189.13
2022-07-29T00:09:33.899Z,98180.63
2022-07-29T00:10:52.876Z,98177.50
2022-07-29T00:11:58.093Z,98179.00
2022-07-29T00:12:59.599Z,98173.31
2022-07-29T00:14:01.187Z,98174.50
2022-07-29T00:15:03.260Z,98171.06
2022-07-29T00:16:05.431Z,98175.38
2022-07-29T00:17:07.051Z,98171.16
2022-07-29T00:18:08.559Z,98172.69
2022-07-29T00:19:10.058Z,98166.44
2022-07-29T00:20:12.564Z,98164.63
2022-07-29T00:21:14.114Z,98166.53
2022-07-29T00:22:15.856Z,98165.38
2022-07-29T00:23:17.326Z,98163.13
2022-07-29T00:24:19.399Z,98156.56
2022-07-29T00:25:21.036Z,98153.31
2022-07-29T00:26:22.740Z,98152.13
2022-07-29T00:27:24.316Z,98153.06
2022-07-29T00:28:25.854Z,98147.38
2022-07-29T00:29:35.366Z,98150.50
2022-07-29T00:30:36.952Z,98147.63
2022-07-29T00:31:38.618Z,98150.31
2022-07-29T00:32:40.322Z,98156.44
2022-07-29T00:33:41.970Z,98147.75
2022-07-29T00:35:02.427Z,98153.13
2022-07-29T00:36:04.393Z,98145.41
2022-07-29T00:37:05.920Z,98148.84
2022-07-29T00:38:09.487Z,98144.22
2022-07-29T00:39:10.976Z,98151.00
2022-07-29T00:40:12.902Z,98146.81
2022-07-29T00:41:14.387Z,98147.56
2022-07-29T00:42:15.991Z,98148.63
2022-07-29T00:43:18.148Z,98152.28
2022-07-29T00:44:19.642Z,98155.94
2022-07-29T00:45:21.594Z,98146.25
2022-07-29T00:46:23.061Z,98153.88
2022-07-29T00:47:24.545Z,98149.13
2022-07-29T00:48:26.083Z,98155.50
2022-07-29T00:49:27.608Z,98152.50
2022-07-29T00:50:29.766Z,98151.19
2022-07-29T00:51:31.472Z,98156.88
2022-07-29T00:52:34.804Z,98147.00
2022-07-29T00:53:37.281Z,98146.69
2022-07-29T00:54:44.720Z,98143.56
2022-07-29T00:55:46.815Z,98150.00
2022-07-29T00:56:48.322Z,98149.56
2022-07-29T00:57:50.411Z,98145.81
2022-07-29T00:58:52.576Z,98145.06
2022-07-29T00:59:54.379Z,98145.50
2022-07-29T01:00:56.038Z,98148.06
2022-07-29T01:01:57.631Z,98143.44
2022-07-29T01:02:59.628Z,98141.94
2022-07-29T01:04:01.122Z,98136.13
2022-07-29T01:05:05.139Z,98133.88
2022-07-29T01:06:06.858Z,98140.13
2022-07-29T01:07:08.992Z,98140.47
2022-07-29T01:08:13.705Z,98135.81
2022-07-29T01:09:16.837Z,98138.69
2022-07-29T01:10:38.760Z,98138.69
2022-07-29T01:11:40.807Z,98134.81
2022-07-29T01:12:45.074Z,98140.63
2022-07-29T01:13:48.450Z,98140.75
2022-07-29T01:14:51.362Z,98136.69
2022-07-29T01:16:00.098Z,98141.31
2022-07-29T01:17:12.791Z,98136.25
2022-07-29T01:18:31.275Z,98144.75
2022-07-29T01:20:17.546Z,98142.50
2022-07-29T01:21:51.055Z,98143.19
2022-07-29T01:23:07.647Z,98153.59
2022-07-29T01:24:36.481Z,98152.84
2022-07-29T01:25:47.155Z,98159.75
2022-07-29T01:27:05.513Z,98164.97
2022-07-29T01:28:07.960Z,98170.34
2022-07-29T01:29:20.620Z,98168.09
2022-07-29T01:30:26.819Z,98174.22
2022-07-29T01:31:40.268Z,98170.91
2022-07-29T01:33:03.121Z,98174.47
2022-07-29T01:34:08.263Z,98165.75
2022-07-29T01:35:24.470Z,98168.00
2022-07-29T01:36:50.055Z,98161.88
2022-07-29T01:37:58.544Z,98164.47
2022-07-29T01:39:22.877Z,98164.03
2022-07-29T01:40:35.549Z,98165.97
2022-07-29T01:41:41.492Z,98161.78
2022-07-29T01:42:45.505Z,98158.44
2022-07-29T01:43:58.824Z,98162.22
2022-07-29T01:45:07.089Z,98160.59
2022-07-29T01:46:15.118Z,98155.13
2022-07-29T01:47:21.588Z,98153.59
2022-07-29T01:48:28.475Z,98161.47
2022-07-29T01:49:36.563Z,98152.31
2022-07-29T01:50:46.257Z,98157.38
2022-07-29T01:51:52.758Z,98162.00
2022-07-29T01:52:58.725Z,98160.06
2022-07-29T01:54:19.699Z,98168.84
2022-07-29T01:55:25.538Z,98163.94
2022-07-29T01:56:32.327Z,98165.13
2022-07-29T01:57:36.889Z,98160.50
2022-07-29T01:58:40.987Z,98155.00
2022-07-29T01:59:46.129Z,98156.09
2022-07-29T02:00:49.756Z,98150.31
2022-07-29T02:01:54.390Z,98157.59
2022-07-29T02:02:57.857Z,98152.88
2022-07-29T02:04:02.719Z,98158.81
2022-07-29T02:05:07.447Z,98158.34
2022-07-29T02:06:12.096Z,98151.16
2022-07-29T02:07:16.605Z,98151.91
2022-07-29T02:08:20.698Z,98151.72
2022-07-29T02:09:24.339Z,98146.03
2022-07-29T02:10:28.708Z,98147.00
2022-07-29T02:11:34.532Z,98148.31
2022-07-29T02:12:37.228Z,98149.94
2022-07-29T02:13:40.040Z,98156.06
2022-07-29T02:14:44.673Z,98157.25
2022-07-29T02:15:47.656Z,98150.38
2022-07-29T02:16:53.139Z,98150.03
2022-07-29T02:18:03.091Z,98154.03
2022-07-29T02:19:06.158Z,98158.34
2022-07-29T02:20:09.774Z,98157.25
2022-07-29T02:21:15.118Z,98157.69
2022-07-29T02:22:19.592Z,98157.34
2022-07-29T02:23:25.325Z,98153.63
2022-07-29T02:24:27.622Z,98151.78
2022-07-29T02:25:37.066Z,98155.75
2022-07-29T02:26:42.620Z,98156.09
2022-07-29T02:27:45.785Z,98160.69
2022-07-29T02:28:49.158Z,98152.31
2022-07-29T02:29:52.180Z,98153.72
2022-07-29T02:30:57.002Z,98150.19
2022-07-29T02:32:00.690Z,98148.25
2022-07-29T02:33:03.874Z,98149.00
2022-07-29T02:34:08.073Z,98148.56
2022-07-29T02:35:11.462Z,98146.84
2022-07-29T02:36:13.452Z,98145.91
2022-07-29T02:37:17.623Z,98147.69
2022-07-29T02:38:40.089Z,98153.94
2022-07-29T02:39:44.592Z,98147.09
2022-07-29T02:40:46.640Z,98149.94
2022-07-29T02:41:51.725Z,98139.03
2022-07-29T02:42:53.681Z,98137.41
2022-07-29T02:43:58.236Z,98138.50
2022-07-29T02:44:59.733Z,98142.34
2022-07-29T02:46:03.588Z,98147.59
2022-07-29T02:47:23.897Z,98151.66
2022-07-29T02:48:35.330Z,98154.13
2022-07-29T02:49:47.978Z,98148.22
2022-07-29T02:50:52.747Z,98141.59
2022-07-29T02:51:59.150Z,98144.34
2022-07-29T02:53:10.348Z,98151.19
2022-07-29T02:54:21.198Z,98149.06
2022-07-29T02:55:37.914Z,98146.91
2022-07-29T02:56:41.427Z,98154.63
2022-07-29T02:57:54.521Z,98155.47
2022-07-29T02:59:01.170Z,98151.31
2022-07-29T03:00:07.289Z,98153.97
2022-07-29T03:01:22.683Z,98151.19
2022-07-29T03:02:27.048Z,98151.28
2022-07-29T03:03:37.312Z,98157.28
2022-07-29T03:04:42.498Z,98162.84
2022-07-29T03:05:44.102Z,98149.13
2022-07-29T03:06:47.024Z,98147.94
2022-07-29T03:08:05.216Z,98151.91
2022-07-29T03:09:13.570Z,98150.63
2022-07-29T03:10:15.361Z,98148.06
2022-07-29T03:11:18.673Z,98146.97
2022-07-29T03:12:21.048Z,98153.59
2022-07-29T03:13:23.777Z,98151.34
2022-07-29T03:14:26.611Z,98147.34
2022-07-29T03:15:28.734Z,98148.69
2022-07-29T03:16:30.736Z,98155.97
2022-07-29T03:17:33.359Z,98154.16
2022-07-29T03:18:36.198Z,98157.41
2022-07-29T03:19:38.413Z,98152.47
2022-07-29T03:20:40.608Z,98153.97
2022-07-29T03:21:42.079Z,98149.38
2022-07-29T03:22:47.720Z,98147.44
2022-07-29T03:23:49.159Z,98155.81
2022-07-29T03:24:50.629Z,98154.03
2022-07-29T03:25:52.473Z,98144.72
2022-07-29T03:26:55.817Z,98144.72
2022-07-29T03:27:58.076Z,98148.56
2022-07-29T03:28:59.517Z,98154.00
2022-07-29T03:30:01.122Z,98145.31
2022-07-29T03:31:02.688Z,98145.09
2022-07-29T03:32:07.926Z,98141.22
2022-07-29T03:33:13.604Z,98143.38
2022-07-29T03:34:15.645Z,98139.97
2022-07-29T03:35:17.737Z,98144.47
2022-07-29T03:36:19.153Z,98140.28
2022-07-29T03:37:20.639Z,98140.25
2022-07-29T03:38:26.079Z,98147.53
2022-07-29T03:39:32.296Z,98144.84
2022-07-29T03:40:41.465Z,98143.31
2022-07-29T03:41:45.357Z,98139.16
2022-07-29T03:42:48.176Z,98139.16
2022-07-29T03:43:50.680Z,98138.47
2022-07-29T03:44:53.780Z,98146.00
2022-07-29T03:45:57.358Z,98141.06
2022-07-29T03:47:02.933Z,98144.69
2022-07-29T03:48:11.438Z,98133.63
2022-07-29T03:49:15.869Z,98137.50
2022-07-29T03:50:20.373Z,98140.59
2022-07-29T03:51:33.817Z,98139.84
2022-07-29T03:52:36.316Z,98143.13
2022-07-29T03:53:38.906Z,98138.09
2022-07-29T03:54:41.218Z,98145.06
2022-07-29T03:55:47.572Z,98144.88
2022-07-29T03:56:51.233Z,98147.13
2022-07-29T03:57:53.528Z,98144.22
2022-07-29T03:58:56.103Z,98140.38
2022-07-29T03:59:58.562Z,98147.22
2022-07-29T04:01:00.532Z,98148.91
2022-07-29T04:02:04.905Z,98150.47
2022-07-29T04:03:10.835Z,98140.94
2022-07-29T04:04:13.983Z,98152.09
2022-07-29T04:05:16.272Z,98155.84
2022-07-29T04:06:17.744Z,98161.97
2022-07-29T04:07:19.393Z,98164.13
2022-07-29T04:08:21.159Z,98156.44
2022-07-29T04:09:22.647Z,98158.03
2022-07-29T04:10:30.133Z,98158.78
2022-07-29T04:11:33.062Z,98159.19
2022-07-29T04:12:54.792Z,98151.34
2022-07-29T04:13:56.254Z,98157.44
2022-07-29T04:14:57.709Z,98153.00
2022-07-29T04:15:59.496Z,98157.19
2022-07-29T04:17:04.017Z,98152.91
2022-07-29T04:18:05.889Z,98161.38
2022-07-29T04:19:07.315Z,98162.53
2022-07-29T04:20:09.402Z,98155.34
2022-07-29T04:21:10.862Z,98165.75
2022-07-29T04:22:12.381Z,98159.31
2022-07-29T04:23:14.267Z,98156.63
2022-07-29T04:24:16.308Z,98156.47
2022-07-29T04:25:18.253Z,98156.13
2022-07-29T04:26:20.763Z,98156.81
2022-07-29T04:27:22.298Z,98153.72
2022-07-29T04:28:23.760Z,98159.06
2022-07-29T04:29:25.243Z,98165.50
2022-07-29T04:30:27.197Z,98167.75
2022-07-29T04:31:28.808Z,98165.09
2022-07-29T04:32:30.327Z,98163.72
2022-07-29T04:33:32.188Z,98164.22
2022-07-29T04:34:33.662Z,98161.22
2022-07-29T04:35:45.737Z,98168.25
2022-07-29T04:36:53.752Z,98165.28
2022-07-29T04:37:55.567Z,98160.69
2022-07-29T04:38:57.102Z,98169.75
2022-07-29T04:39:58.578Z,98165.91
2022-07-29T04:41:00.160Z,98170.81
2022-07-29T04:42:01.806Z,98169.00
2022-07-29T04:43:05.837Z,98171.56
2022-07-29T04:44:07.784Z,98171.09
2022-07-29T04:45:10.650Z,98171.09
2022-07-29T04:46:12.274Z,98163.47
2022-07-29T04:47:13.894Z,98174.94
2022-07-29T04:48:15.746Z,98164.66
2022-07-29T04:49:17.279Z,98157.88
2022-07-29T04:50:18.872Z,98160.63
2022-07-29T04:51:20.342Z,98166.81
2022-07-29T04:52:21.782Z,98159.56
2022-07-29T04:53:23.424Z,98163.38
2022-07-29T04:54:25.556Z,98166.47
2022-07-29T04:55:27.443Z,98163.53
2022-07-29T04:56:29.009Z,98167.97
2022-07-29T04:57:30.955Z,98169.06
2022-07-29T04:58:32.434Z,98179.41
2022-07-29T04:59:33.917Z,98177.91
2022-07-29T05:00:35.628Z,98174.50
2022-07-29T05:01:37.141Z,98169.56
2022-07-29T05:02:38.797Z,98178.06
2022-07-29T05:03:40.255Z,98171.63
2022-07-29T05:04:41.757Z,98171.63
2022-07-29T05:05:43.419Z,98174.72
2022-07-29T05:06:44.905Z,98175.72
2022-07-29T05:07:46.653Z,98183.69
2022-07-29T05:08:48.145Z,98174.84
2022-07-29T05:09:50.015Z,98181.34
2022-07-29T05:10:51.753Z,98184.31
2022-07-29T05:11:53.197Z,98182.63
2022-07-29T05:12:54.674Z,98183.81
2022-07-29T05:13:56.123Z,98188.16
2022-07-29T05:14:57.630Z,98185.81
2022-07-29T05:15:59.442Z,98185.81
2022-07-29T05:17:01.289Z,98180.13
2022-07-29T05:18:02.849Z,98185.13
2022-07-29T05:19:04.311Z,98179.47
2022-07-29T05:20:06.908Z,98178.78
2022-07-29T05:21:08.427Z,98186.72
2022-07-29T05:22:10.233Z,98185.06
2022-07-29T05:23:13.752Z,98183.31
2022-07-29T05:24:15.431Z,98186.81
2022-07-29T05:25:17.755Z,98181.94
2022-07-29T05:26:19.366Z,98184.19
2022-07-29T05:27:20.946Z,98182.47
2022-07-29T05:28:22.705Z,98184.81
2022-07-29T05:29:42.958Z,98184.06
2022-07-29T05:30:45.736Z,98187.81
2022-07-29T05:31:47.201Z,98191.91
2022-07-29T05:32:48.728Z,98181.13
2022-07-29T05:33:50.204Z,98184.91
2022-07-29T05:34:51.988Z,98181.06
2022-07-29T05:35:57.267Z,98182.91
2022-07-29T05:37:01.618Z,98183.28
2022-07-29T05:38:03.075Z,98188.13
2022-07-29T05:39:05.219Z,98189.56
2022-07-29T05:40:07.054Z,98186.88
2022-07-29T05:41:08.519Z,98194.47
2022-07-29T05:42:11.381Z,98197.41
2022-07-29T05:43:12.741Z,98188.28
2022-07-29T05:44:15.042Z,98193.16
2022-07-29T05:45:16.671Z,98187.59
2022-07-29T05:46:18.243Z,98184.53
2022-07-29T05:47:19.920Z,98189.69
2022-07-29T05:48:21.757Z,98178.84
2022-07-29T05:49:27.299Z,98191.28
2022-07-29T05:50:29.041Z,98191.94
2022-07-29T05:51:31.203Z,98188.75
2022-07-29T05:52:32.730Z,98188.75
2022-07-29T05:53:34.350Z,98192.84
2022-07-29T05:54:36.380Z,98193.97
2022-07-29T05:55:37.905Z,98194.94
2022-07-29T05:56:40.955Z,98199.47
2022-07-29T05:57:44.431Z,98190.56
2022-07-29T05:58:45.905Z,98198.09
2022-07-29T05:59:48.034Z,98199.22
2022-07-29T06:00:49.578Z,98198.53
2022-07-29T06:01:51.216Z,98194.84
2022-07-29T06:02:52.712Z,98192.44
2022-07-29T06:03:54.472Z,98183.66
2022-07-29T06:04:56.098Z,98194.19
2022-07-29T06:05:57.645Z,98189.09
2022-07-29T06:06:59.072Z,98186.25
2022-07-29T06:08:00.599Z,98177.69
2022-07-29T06:09:09.102Z,98181.22
2022-07-29T06:10:14.183Z,98177.16
2022-07-29T06:11:15.624Z,98189.94
2022-07-29T06:12:17.079Z,98182.38
2022-07-29T06:13:18.536Z,98179.81
2022-07-29T06:14:20.681Z,98180.88
2022-07-29T06:15:22.191Z,98192.91
2022-07-29T06:16:29.896Z,98192.84
2022-07-29T06:17:31.843Z,98181.66
2022-07-29T06:18:33.289Z,98193.78
2022-07-29T06:19:36.354Z,98192.53
2022-07-29T06:20:37.869Z,98190.06
2022-07-29T06:21:46.780Z,98196.72
2022-07-29T06:22:48.304Z,98198.56
2022-07-29T06:23:49.737Z,98193.84
2022-07-29T06:24:51.198Z,98188.19
2022-07-29T06:25:52.661Z,98199.34
2022-07-29T06:26:54.247Z,98192.69
2022-07-29T06:27:55.864Z,98198.59
2022-07-29T06:28:57.371Z,98191.50
2022-07-29T06:29:58.961Z,98196.41
2022-07-29T06:31:00.744Z,98196.09
2022-07-29T06:32:03.213Z,98188.66
2022-07-29T06:33:05.518Z,98189.09
2022-07-29T06:34:07.507Z,98195.56
2022-07-29T06:35:38.249Z,98195.00
2022-07-29T06:36:31.328Z,98196.81
2022-07-29T06:37:33.229Z,98186.72
2022-07-29T06:38:40.621Z,98192.16
2022-07-29T06:39:46.410Z,98187.03
2022-07-29T06:41:06.446Z,98190.22
2022-07-29T06:42:07.978Z,98194.78
2022-07-29T06:43:09.773Z,98193.13
2022-07-29T06:44:11.240Z,98190.13
2022-07-29T06:45:13.537Z,98196.25
2022-07-29T06:46:16.643Z,98191.28
2022-07-29T06:47:18.155Z,98193.75
2022-07-29T06:48:19.606Z,98195.13
2022-07-29T06:49:21.157Z,98190.81
2022-07-29T06:50:22.745Z,98195.63
2022-07-29T06:51:24.394Z,98192.59
2022-07-29T06:52:26.425Z,98195.13
2022-07-29T06:53:28.569Z,98195.81
2022-07-29T06:54:30.073Z,98193.19
2022-07-29T06:55:31.734Z,98195.78
2022-07-29T06:56:38.323Z,98196.06
2022-07-29T06:57:42.034Z,98196.00
2022-07-29T06:58:43.566Z,98193.06
2022-07-29T06:59:45.020Z,98198.09
2022-07-29T07:00:47.346Z,98203.09
2022-07-29T07:01:48.984Z,98209.31
2022-07-29T07:02:50.545Z,98205.47
2022-07-29T07:03:52.111Z,98197.56
2022-07-29T07:04:53.596Z,98202.38
2022-07-29T07:05:55.874Z,98203.13
2022-07-29T07:06:57.449Z,98206.28
2022-07-29T07:07:58.928Z,98207.69
2022-07-29T07:09:00.470Z,98206.06
2022-07-29T07:10:02.164Z,98204.72
2022-07-29T07:11:04.963Z,98211.03
2022-07-29T07:12:06.895Z,98207.44
2022-07-29T07:13:08.568Z,98206.13
2022-07-29T07:14:10.025Z,98211.38
2022-07-29T07:15:11.733Z,98203.91
2022-07-29T07:16:13.233Z,98211.41
2022-07-29T07:17:14.826Z,98212.78
2022-07-29T07:18:16.890Z,98208.47
2022-07-29T07:19:20.146Z,98204.13
2022-07-29T07:20:21.678Z,98203.13
2022-07-29T07:21:23.270Z,98200.59
2022-07-29T07:22:24.860Z,98208.81
2022-07-29T07:23:26.360Z,98200.16
2022-07-29T07:24:27.853Z,98198.94
2022-07-29T07:25:29.504Z,98200.00
2022-07-29T07:26:31.022Z,98199.84
2022-07-29T07:27:32.499Z,98201.34
2022-07-29T07:28:34.075Z,98201.97
2022-07-29T07:29:35.655Z,98198.34
2022-07-29T07:30:37.384Z,98197.50
2022-07-29T07:31:39.167Z,98196.88
2022-07-29T07:32:41.145Z,98199.88
2022-07-29T07:33:42.663Z,98196.44
2022-07-29T07:34:44.425Z,98195.09
2022-07-29T07:35:45.940Z,98197.53
2022-07-29T07:36:47.458Z,98199.91
2022-07-29T07:37:49.067Z,98191.69
2022-07-29T07:38:50.665Z,98190.00
2022-07-29T07:39:55.296Z,98195.41
2022-07-29T07:40:56.800Z,98195.72
2022-07-29T07:41:58.278Z,98193.31
2022-07-29T07:42:59.766Z,98188.53
2022-07-29T07:44:01.395Z,98188.84
2022-07-29T07:45:13.601Z,98193.03
2022-07-29T07:46:16.241Z,98182.09
2022-07-29T07:47:20.774Z,98185.34
2022-07-29T07:48:23.791Z,98182.03
2022-07-29T07:49:25.343Z,98186.72
2022-07-29T07:50:27.042Z,98189.13
2022-07-29T07:51:28.641Z,98185.41
2022-07-29T07:52:30.100Z,98185.38
2022-07-29T07:53:31.655Z,98190.94
2022-07-29T07:54:34.164Z,98185.81
2022-07-29T07:56:08.245Z,98187.31
2022-07-29T07:57:02.735Z,98187.03
2022-07-29T07:58:04.161Z,98185.38
2022-07-29T07:59:05.589Z,98182.84
2022-07-29T08:00:07.740Z,98186.16
2022-07-29T08:01:10.363Z,98175.50
2022-07-29T08:02:12.134Z,98183.75
2022-07-29T08:03:17.042Z,98178.66
2022-07-29T08:04:22.222Z,98181.19
2022-07-29T08:05:28.320Z,98174.44
2022-07-29T08:06:29.781Z,98182.09
2022-07-29T08:07:31.308Z,98183.59
2022-07-29T08:08:32.940Z,98181.94
2022-07-29T08:09:35.342Z,98179.41
2022-07-29T08:10:56.304Z,98174.75
2022-07-29T08:12:00.196Z,98181.31
2022-07-29T08:13:04.179Z,98179.22
2022-07-29T08:14:05.727Z,98182.53
2022-07-29T08:15:08.663Z,98187.31
2022-07-29T08:16:13.967Z,98175.00
2022-07-29T08:17:15.772Z,98186.25
2022-07-29T08:18:18.349Z,98182.75
2022-07-29T08:19:19.925Z,98181.56
2022-07-29T08:20:21.370Z,98180.03
2022-07-29T08:21:23.243Z,98179.72
2022-07-29T08:22:24.688Z,98180.91
2022-07-29T08:23:32.948Z,98176.22
2022-07-29T08:24:54.127Z,98184.53
2022-07-29T08:25:57.412Z,98182.19
2022-07-29T08:26:59.064Z,98177.09
2022-07-29T08:28:00.510Z,98183.41
2022-07-29T08:29:01.984Z,98180.16
2022-07-29T08:30:04.723Z,98178.53
2022-07-29T08:31:06.690Z,98182.81
2022-07-29T08:32:08.246Z,98178.47
2022-07-29T08:33:09.777Z,98186.16
2022-07-29T08:34:11.220Z,98187.09
2022-07-29T08:35:12.707Z,98186.91
2022-07-29T08:36:14.510Z,98179.97
2022-07-29T08:37:16.412Z,98175.84
2022-07-29T08:38:17.892Z,98182.41
2022-07-29T08:39:19.334Z,98185.97
2022-07-29T08:40:32.247Z,98180.34
2022-07-29T08:41:34.178Z,98178.31
2022-07-29T08:42:36.546Z,98174.31
2022-07-29T08:43:39.119Z,98170.81
2022-07-29T08:44:40.694Z,98176.75
2022-07-29T08:45:48.501Z,98174.31
2022-07-29T08:46:50.831Z,98179.25
2022-07-29T08:47:53.391Z,98178.06
2022-07-29T08:48:56.344Z,98186.63
2022-07-29T08:49:57.939Z,98178.72
2022-07-29T08:51:00.182Z,98174.22
2022-07-29T08:52:02.057Z,98174.13
2022-07-29T08:53:04.218Z,98172.06
2022-07-29T08:54:06.565Z,98171.22
2022-07-29T08:55:10.585Z,98173.28
2022-07-29T08:56:20.063Z,98169.94
2022-07-29T08:57:22.503Z,98179.72
2022-07-29T08:58:26.378Z,98171.81
2022-07-29T08:59:31.334Z,98172.56
2022-07-29T09:00:33.015Z,98169.56
2022-07-29T09:01:42.803Z,98170.03
2022-07-29T09:02:52.689Z,98170.22
2022-07-29T09:03:57.939Z,98175.53
2022-07-29T09:05:02.429Z,98173.94
2022-07-29T09:06:04.822Z,98173.56
2022-07-29T09:07:07.120Z,98180.00
2022-07-29T09:08:09.173Z,98174.41
2022-07-29T09:09:11.261Z,98171.59
2022-07-29T09:10:12.808Z,98172.47
2022-07-29T09:11:14.846Z,98168.78
2022-07-29T09:12:28.609Z,98162.72
2022-07-29T09:13:31.481Z,98168.25
2022-07-29T09:14:33.013Z,98164.66
2022-07-29T09:15:34.449Z,98165.41
2022-07-29T09:16:53.044Z,98160.16
2022-07-29T09:17:56.382Z,98166.84
2022-07-29T09:18:57.836Z,98160.34
2022-07-29T09:20:13.291Z,98163.94
2022-07-29T09:21:36.769Z,98161.72
2022-07-29T09:22:42.177Z,98164.91
2022-07-29T09:24:08.032Z,98155.56
2022-07-29T09:25:12.636Z,98161.09
2022-07-29T09:26:14.063Z,98160.22
2022-07-29T09:27:18.259Z,98159.31
2022-07-29T09:28:19.802Z,98158.25
2022-07-29T09:29:24.038Z,98155.03
2022-07-29T09:30:31.646Z,98163.88
2022-07-29T09:31:36.075Z,98158.25
2022-07-29T09:32:56.875Z,98157.06
2022-07-29T09:34:01.193Z,98157.81
2022-07-29T09:35:35.056Z,98148.19
2022-07-29T09:36:45.484Z,98151.06
2022-07-29T09:37:47.861Z,98148.28
2022-07-29T09:38:59.708Z,98151.06
2022-07-29T09:40:12.041Z,98147.25
2022-07-29T09:41:15.037Z,98151.16
2022-07-29T09:42:29.234Z,98141.56
2022-07-29T09:43:30.850Z,98142.31
2022-07-29T09:44:50.921Z,98145.47
2022-07-29T09:45:52.513Z,98137.94
2022-07-29T09:47:07.185Z,98140.34
2022-07-29T09:48:20.341Z,98146.31
2022-07-29T09:49:21.862Z,98145.13
2022-07-29T09:50:26.695Z,98148.19
2022-07-29T09:51:38.255Z,98147.25
2022-07-29T09:52:51.496Z,98150.78
2022-07-29T09:53:53.346Z,98147.09
2022-07-29T09:55:06.135Z,98146.44
2022-07-29T09:56:07.653Z,98150.63
2022-07-29T09:57:22.108Z,98147.91
2022-07-29T09:58:23.811Z,98147.00
2022-07-29T09:59:27.503Z,98148.94
2022-07-29T10:00:29.625Z,98149.41
2022-07-29T10:01:31.427Z,98147.00
2022-07-29T10:02:35.159Z,98149.97
2022-07-29T10:03:56.353Z,98152.97
2022-07-29T10:04:58.075Z,98152.09
2022-07-29T10:06:06.429Z,98149.78
2022-07-29T10:07:08.185Z,98154.81
2022-07-29T10:08:13.551Z,98151.28
2022-07-29T10:09:14.999Z,98150.06
2022-07-29T10:10:29.652Z,98158.72
2022-07-29T10:11:48.088Z,98148.38
2022-07-29T10:13:07.156Z,98150.34
2022-07-29T10:14:10.448Z,98147.00
2022-07-29T10:15:11.937Z,98145.69
2022-07-29T10:16:14.908Z,98140.75
2022-07-29T10:17:17.360Z,98147.25
2022-07-29T10:18:20.916Z,98146.50
2022-07-29T10:19:22.759Z,98152.84
2022-07-29T10:20:26.071Z,98146.84
2022-07-29T10:21:35.434Z,98150.38
2022-07-29T10:23:54.157Z,98151.03
2022-07-29T10:25:00.987Z,98145.84
2022-07-29T10:26:04.445Z,98153.78
2022-07-29T10:27:09.240Z,98147.91
2022-07-29T10:28:15.773Z,98146.34
2022-07-29T10:29:17.870Z,98154.06
2022-07-29T10:30:21.269Z,98149.75
2022-07-29T10:31:30.698Z,98146.50
2022-07-29T10:32:32.182Z,98147.81
2022-07-29T10:34:08.143Z,98147.25
2022-07-29T10:35:40.315Z,98140.00
2022-07-29T10:36:55.934Z,98149.56
2022-07-29T10:38:32.067Z,98144.03
2022-07-29T10:40:31.175Z,98140.00
2022-07-29T10:41:52.079Z,98139.25
2022-07-29T10:42:54.934Z,98135.72
2022-07-29T10:43:59.738Z,98130.03
2022-07-29T10:45:04.366Z,98133.66
2022-07-29T10:46:07.412Z,98126.56
2022-07-29T10:47:20.114Z,98129.34
2022-07-29T10:48:23.594Z,98130.25
2022-07-29T10:49:30.734Z,98125.72
2022-07-29T10:51:03.853Z,98124.06
2022-07-29T10:52:06.695Z,98124.34
2022-07-29T10:53:09.011Z,98116.66
2022-07-29T10:54:17.016Z,98120.91
2022-07-29T10:55:43.127Z,98117.34
2022-07-29T10:56:45.326Z,98114.88
2022-07-29T10:58:15.434Z,98118.19
2022-07-29T10:59:22.813Z,98115.88
2022-07-29T11:00:29.812Z,98115.75
2022-07-29T11:01:37.442Z,98117.47
2022-07-29T11:02:41.279Z,98112.59
2022-07-29T11:03:53.752Z,98112.16
2022-07-29T11:04:58.877Z,98113.03
2022-07-29T11:06:00.419Z,98103.53
2022-07-29T11:07:03.916Z,98109.06
2022-07-29T11:08:20.308Z,98105.00
2022-07-29T11:09:35.122Z,98107.28
2022-07-29T11:10:41.222Z,98101.63
2022-07-29T11:11:44.039Z,98099.50
2022-07-29T11:12:53.443Z,98105.53
2022-07-29T11:13:56.141Z,98104.09
2022-07-29T11:15:03.498Z,98100.25
2022-07-29T11:16:07.083Z,98103.44
2022-07-29T11:17:10.073Z,98102.03
2022-07-29T11:18:17.564Z,98100.25
2022-07-29T11:19:26.456Z,98105.22
2022-07-29T11:20:37.792Z,98108.78
2022-07-29T11:21:54.056Z,98113.78
2022-07-29T11:22:57.046Z,98113.31
2022-07-29T11:24:13.642Z,98106.59
2022-07-29T11:25:50.237Z,98112.06
2022-07-29T11:26:42.921Z,98106.97
2022-07-29T11:29:25.013Z,98108.31
2022-07-29T11:30:52.232Z,98112.66
2022-07-29T11:32:10.714Z,98105.75
2022-07-29T11:33:54.535Z,98105.41
2022-07-29T11:35:18.483Z,98102.75
2022-07-29T11:36:28.254Z,98110.41
2022-07-29T11:37:30.815Z,98100.84
2022-07-29T11:38:33.412Z,98104.59
2022-07-29T11:39:37.591Z,98095.38
2022-07-29T11:40:39.269Z,98095.75
2022-07-29T11:41:44.153Z,98093.94
2022-07-29T11:42:47.313Z,98100.09
2022-07-29T11:45:43.614Z,98090.34
2022-07-29T11:46:46.892Z,98089.34
2022-07-29T11:47:50.617Z,98087.13
2022-07-29T11:48:52.799Z,98084.97
2022-07-29T11:49:56.086Z,98089.59
2022-07-29T11:51:09.754Z,98085.59
2022-07-29T11:52:12.131Z,98084.84
2022-07-29T11:53:15.522Z,98085.94
2022-07-29T11:54:27.648Z,98093.84
2022-07-29T11:55:32.420Z,98091.13
2022-07-29T11:56:49.316Z,98086.00
2022-07-29T11:58:04.394Z,98081.59
2022-07-29T11:59:08.343Z,98081.53
2022-07-29T12:00:12.519Z,98084.16
2022-07-29T12:01:18.405Z,98074.56
2022-07-29T12:02:36.594Z,98074.28
2022-07-29T12:03:39.218Z,98080.28
2022-07-29T12:04:55.256Z,98081.41
2022-07-29T12:05:56.921Z,98081.75
2022-07-29T12:07:00.382Z,98086.88
2022-07-29T12:08:20.905Z,98088.84
2022-07-29T12:09:23.472Z,98082.81
2022-07-29T12:10:31.647Z,98081.72
2022-07-29T12:11:35.020Z,98085.66
2022-07-29T12:12:36.848Z,98081.91
2022-07-29T12:13:40.993Z,98077.28
2022-07-29T12:14:46.558Z,98073.47
2022-07-29T12:15:55.654Z,98075.66
2022-07-29T12:17:01.592Z,98068.09
2022-07-29T12:18:15.784Z,98068.84
2022-07-29T12:19:19.722Z,98070.47
2022-07-29T12:20:29.510Z,98063.91
2022-07-29T12:21:56.810Z,98068.16
2022-07-29T12:22:58.792Z,98052.94
2022-07-29T12:24:08.818Z,98053.00
2022-07-29T12:25:32.869Z,98061.06
2022-07-29T12:26:35.762Z,98055.25
2022-07-29T12:27:40.447Z,98045.66
2022-07-29T12:28:42.471Z,98049.44
2022-07-29T12:30:03.336Z,98049.50
2022-07-29T12:31:05.811Z,98048.09
2022-07-29T12:32:14.587Z,98037.44
2022-07-29T12:33:21.241Z,98047.09
2022-07-29T12:34:27.653Z,98045.53
2022-07-29T12:35:29.195Z,98042.09
2022-07-29T12:36:31.357Z,98047.75
2022-07-29T12:37:41.252Z,98041.63
2022-07-29T12:38:45.394Z,98047.50
2022-07-29T12:39:46.823Z,98047.50
2022-07-29T12:40:49.676Z,98041.44
2022-07-29T12:41:51.137Z,98051.59
2022-07-29T12:43:16.033Z,98046.31
2022-07-29T12:44:17.503Z,98049.50
2022-07-29T12:45:29.623Z,98044.22
2022-07-29T12:46:31.254Z,98047.63
2022-07-29T12:47:33.335Z,98037.72
2022-07-29T12:48:41.294Z,98044.94
2022-07-29T12:49:42.874Z,98042.13
2022-07-29T12:51:02.259Z,98051.03
2022-07-29T12:52:26.350Z,98047.13